createdAt,value
2022-09-03T00:00:13.487Z,16.83
2022-09-03T00:02:46.059Z,16.78
2022-09-03T00:05:20.067Z,16.77
2022-09-03T00:07:57.227Z,16.75
2022-09-03T00:10:32.500Z,16.74
2022-09-03T00:13:04.835Z,16.71
2022-09-03T00:15:34.935Z,16.65
2022-09-03T00:18:07.535Z,16.65
2022-09-03T00:20:42.760Z,16.60
2022-09-03T00:23:15.621Z,16.52
2022-09-03T00:25:49.455Z,16.45
2022-09-03T00:28:24.246Z,16.42
2022-09-03T00:31:00.237Z,16.37
2022-09-03T00:33:33.081Z,16.35
2022-09-03T00:36:14.254Z,16.32
2022-09-03T00:38:41.933Z,16.31
2022-09-03T00:41:19.880Z,16.26
2022-09-03T00:44:06.273Z,16.21
2022-09-03T00:46:42.221Z,16.17
2022-09-03T00:49:33.135Z,16.07
2022-09-03T00:52:11.686Z,16.06
2022-09-03T00:54:49.003Z,15.99
2022-09-03T00:57:30.361Z,15.95
2022-09-03T01:00:06.174Z,15.90
2022-09-03T01:02:47.082Z,15.86
2022-09-03T01:05:29.961Z,15.80
2022-09-03T01:08:15.154Z,15.78
2022-09-03T01:10:54.350Z,15.73
2022-09-03T01:13:28.571Z,15.68
2022-09-03T01:16:10.836Z,15.63
2022-09-03T01:18:49.824Z,15.58
2022-09-03T01:21:44.755Z,15.56
2022-09-03T01:24:43.568Z,15.51
2022-09-03T01:27:28.356Z,15.46
2022-09-03T01:30:04.028Z,15.39
2022-09-03T01:32:42.905Z,15.37
2022-09-03T01:35:19.229Z,15.33
2022-09-03T01:38:03.903Z,15.27
2022-09-03T01:40:39.856Z,15.20
2022-09-03T01:43:35.971Z,15.18
2022-09-03T01:46:13.806Z,15.15
2022-09-03T01:48:47.254Z,15.15
2022-09-03T01:51:25.763Z,15.18
2022-09-03T01:54:21.052Z,15.14
2022-09-03T01:57:34.971Z,15.10
2022-09-03T02:00:08.101Z,15.03
2022-09-03T02:02:48.297Z,14.99
2022-09-03T02:05:19.211Z,14.94
2022-09-03T02:07:49.510Z,14.90
2022-09-03T02:10:19.588Z,14.87
2022-09-03T02:12:53.784Z,14.84
2022-09-03T02:15:24.056Z,14.80
2022-09-03T02:17:57.644Z,14.81
2022-09-03T02:20:28.523Z,14.77
2022-09-03T02:22:58.276Z,14.75
2022-09-03T02:25:32.308Z,14.72
2022-09-03T02:28:00.955Z,14.68
2022-09-03T02:30:28.684Z,14.62
2022-09-03T02:32:58.182Z,14.59
2022-09-03T02:35:25.881Z,14.59
2022-09-03T02:37:54.374Z,14.61
2022-09-03T02:40:22.030Z,14.60
2022-09-03T02:42:50.625Z,14.56
2022-09-03T02:45:27.978Z,14.54
2022-09-03T02:48:00.350Z,14.45
2022-09-03T02:50:28.515Z,14.39
2022-09-03T02:52:57.102Z,14.35
2022-09-03T02:55:24.802Z,14.34
2022-09-03T02:57:52.710Z,14.32
2022-09-03T03:00:20.343Z,14.34
2022-09-03T03:02:48.539Z,14.35
2022-09-03T03:05:27.594Z,14.37
2022-09-03T03:07:56.614Z,14.37
2022-09-03T03:10:26.489Z,14.40
2022-09-03T03:12:55.037Z,14.38
2022-09-03T03:15:23.031Z,14.40
2022-09-03T03:17:51.294Z,14.39
2022-09-03T03:20:20.267Z,14.41
2022-09-03T03:22:48.766Z,14.45
2022-09-03T03:25:16.600Z,14.42
2022-09-03T03:27:45.139Z,14.37
2022-09-03T03:30:13.633Z,14.42
2022-09-03T03:32:42.123Z,14.44
2022-09-03T03:35:11.798Z,14.48
2022-09-03T03:37:41.518Z,14.49
2022-09-03T03:40:10.658Z,14.51
2022-09-03T03:42:38.697Z,14.48
2022-09-03T03:45:07.311Z,14.49
2022-09-03T03:47:35.134Z,14.46
2022-09-03T03:50:03.122Z,14.44
2022-09-03T03:52:30.790Z,14.44
2022-09-03T03:55:00.285Z,14.44
2022-09-03T03:57:31.879Z,14.45
2022-09-03T03:59:59.570Z,14.39
2022-09-03T04:02:27.270Z,14.39
2022-09-03T04:04:54.986Z,14.38
2022-09-03T04:07:22.629Z,14.38
2022-09-03T04:09:50.630Z,14.30
2022-09-03T04:12:19.581Z,14.23
2022-09-03T04:14:47.903Z,14.21
2022-09-03T04:17:16.034Z,14.24
2022-09-03T04:19:44.103Z,14.30
2022-09-03T04:22:12.209Z,14.32
2022-09-03T04:24:39.858Z,14.33
2022-09-03T04:27:07.582Z,14.23
2022-09-03T04:29:36.678Z,14.26
2022-09-03T04:32:23.298Z,14.33
2022-09-03T04:34:51.614Z,14.34
2022-09-03T04:37:19.941Z,14.41
2022-09-03T04:39:48.973Z,14.42
2022-09-03T04:42:16.949Z,14.49
2022-09-03T04:44:46.437Z,14.56
2022-09-03T04:47:15.151Z,14.62
2022-09-03T04:49:42.839Z,14.68
2022-09-03T04:52:10.804Z,14.76
2022-09-03T04:54:38.425Z,14.81
2022-09-03T04:57:06.160Z,14.82
2022-09-03T04:59:33.808Z,14.79
2022-09-03T05:02:03.027Z,14.86
2022-09-03T05:04:31.199Z,14.94
2022-09-03T05:06:58.831Z,15.03
2022-09-03T05:09:26.865Z,15.11
2022-09-03T05:11:54.593Z,15.15
2022-09-03T05:14:23.552Z,15.16
2022-09-03T05:16:52.669Z,15.15
2022-09-03T05:19:22.544Z,15.20
2022-09-03T05:21:50.389Z,15.22
2022-09-03T05:24:19.013Z,15.27
2022-09-03T05:26:46.881Z,15.33
2022-09-03T05:29:16.390Z,15.36
2022-09-03T05:31:44.068Z,15.44
2022-09-03T05:34:16.441Z,15.51
2022-09-03T05:36:49.816Z,15.54
2022-09-03T05:39:17.773Z,15.58
2022-09-03T05:41:45.745Z,15.61
2022-09-03T05:44:13.764Z,15.62
2022-09-03T05:46:41.387Z,15.67
2022-09-03T05:49:09.461Z,15.68
2022-09-03T05:51:39.419Z,15.71
2022-09-03T05:54:09.125Z,15.69
2022-09-03T05:56:40.121Z,15.72
2022-09-03T05:59:09.346Z,15.78
2022-09-03T06:01:39.026Z,15.77
2022-09-03T06:04:09.066Z,15.75
2022-09-03T06:06:38.165Z,15.75
2022-09-03T06:09:08.686Z,15.79
2022-09-03T06:11:37.692Z,15.81
2022-09-03T06:14:08.876Z,15.85
2022-09-03T06:16:38.837Z,15.92
2022-09-03T06:19:10.206Z,15.95
2022-09-03T06:21:40.003Z,16.01
2022-09-03T06:24:10.533Z,16.06
2022-09-03T06:26:40.943Z,16.12
2022-09-03T06:29:11.721Z,16.17
2022-09-03T06:31:40.021Z,16.27
2022-09-03T06:34:08.617Z,16.32
2022-09-03T06:36:36.319Z,16.36
2022-09-03T06:39:04.711Z,16.44
2022-09-03T06:41:35.668Z,16.44
2022-09-03T06:44:06.409Z,16.56
2022-09-03T06:46:36.114Z,16.69
2022-09-03T06:49:04.001Z,16.67
2022-09-03T06:51:33.265Z,16.85
2022-09-03T06:54:03.810Z,17.02
2022-09-03T06:56:38.832Z,17.08
2022-09-03T06:59:08.776Z,17.41
2022-09-03T07:01:37.349Z,17.62
2022-09-03T07:04:08.908Z,17.85
2022-09-03T07:06:38.517Z,18.09
2022-09-03T07:09:07.278Z,18.26
2022-09-03T07:11:37.359Z,18.38
2022-09-03T07:14:06.367Z,18.43
2022-09-03T07:16:36.437Z,18.45
2022-09-03T07:19:05.326Z,18.50
2022-09-03T07:21:36.702Z,18.43
2022-09-03T07:24:06.482Z,18.52
2022-09-03T07:26:37.083Z,18.54
2022-09-03T07:29:05.603Z,18.56
2022-09-03T07:31:35.562Z,18.66
2022-09-03T07:34:09.945Z,18.81
2022-09-03T07:36:41.571Z,18.93
2022-09-03T07:39:11.358Z,19.09
2022-09-03T07:41:42.673Z,19.32
2022-09-03T07:44:11.108Z,19.68
2022-09-03T07:46:40.355Z,19.75
2022-09-03T07:49:09.504Z,19.98
2022-09-03T07:51:39.380Z,20.01
2022-09-03T07:54:11.682Z,20.10
2022-09-03T07:56:41.858Z,20.19
2022-09-03T07:59:10.070Z,20.28
2022-09-03T08:01:39.201Z,20.40
2022-09-03T08:04:11.664Z,20.46
2022-09-03T08:06:39.943Z,20.59
2022-09-03T08:09:10.433Z,20.65
2022-09-03T08:11:39.952Z,20.75
2022-09-03T08:14:11.165Z,20.89
2022-09-03T08:16:41.769Z,21.02
2022-09-03T08:19:11.621Z,21.18
2022-09-03T08:21:42.011Z,21.34
2022-09-03T08:24:11.003Z,21.40
2022-09-03T08:26:40.424Z,21.42
2022-09-03T08:29:10.480Z,21.54
2022-09-03T08:31:38.713Z,21.58
2022-09-03T08:34:08.543Z,21.78
2022-09-03T08:36:38.274Z,21.94
2022-09-03T08:39:10.527Z,22.32
2022-09-03T08:41:56.879Z,22.71
2022-09-03T08:44:31.470Z,22.69
2022-09-03T08:47:03.557Z,22.43
2022-09-03T08:49:39.555Z,22.70
2022-09-03T08:52:17.151Z,23.13
2022-09-03T08:54:45.899Z,23.65
2022-09-03T08:57:14.273Z,23.36
2022-09-03T08:59:43.693Z,23.60
2022-09-03T09:02:22.687Z,23.40
2022-09-03T09:05:00.483Z,23.27
2022-09-03T09:07:33.809Z,23.55
2022-09-03T09:10:11.438Z,23.40
2022-09-03T09:12:48.934Z,23.95
2022-09-03T09:15:29.655Z,24.40
2022-09-03T09:18:15.768Z,24.42
2022-09-03T09:20:50.167Z,24.20
2022-09-03T09:23:24.245Z,24.19
2022-09-03T09:25:57.212Z,23.99
2022-09-03T09:28:26.672Z,23.83
2022-09-03T09:30:58.260Z,23.59
2022-09-03T09:33:26.523Z,23.39
2022-09-03T09:35:54.129Z,23.29
2022-09-03T09:38:30.158Z,23.20
2022-09-03T09:40:59.798Z,23.15
2022-09-03T09:43:28.149Z,23.14
2022-09-03T09:46:08.514Z,23.15
2022-09-03T09:48:42.767Z,22.67
2022-09-03T09:51:12.610Z,22.18
2022-09-03T09:53:42.114Z,21.81
2022-09-03T09:56:09.941Z,21.72
2022-09-03T09:58:38.175Z,21.64
2022-09-03T10:01:14.026Z,21.74
2022-09-03T10:03:50.719Z,21.82
2022-09-03T10:06:38.337Z,21.98
2022-09-03T10:09:11.721Z,22.43
2022-09-03T10:11:42.608Z,22.61
2022-09-03T10:14:18.615Z,23.20
2022-09-03T10:16:51.430Z,23.69
2022-09-03T10:19:22.036Z,24.26
2022-09-03T10:21:56.038Z,24.48
2022-09-03T10:24:39.796Z,24.39
2022-09-03T10:27:12.568Z,24.77
2022-09-03T10:29:42.177Z,24.80
2022-09-03T10:32:24.095Z,24.83
2022-09-03T10:35:04.298Z,24.76
2022-09-03T10:37:39.524Z,24.69
2022-09-03T10:40:17.923Z,24.84
2022-09-03T10:42:52.980Z,25.14
2022-09-03T10:45:31.870Z,25.18
2022-09-03T10:48:38.682Z,25.59
2022-09-03T10:51:11.175Z,25.64
2022-09-03T10:53:51.485Z,25.84
2022-09-03T10:56:25.970Z,26.04
2022-09-03T10:59:05.712Z,26.05
2022-09-03T11:01:39.190Z,26.31
2022-09-03T11:04:23.343Z,26.19
2022-09-03T11:06:55.253Z,26.44
2022-09-03T11:09:28.018Z,26.56
2022-09-03T11:12:01.335Z,26.09
2022-09-03T11:14:35.751Z,25.78
2022-09-03T11:17:10.482Z,26.34
2022-09-03T11:19:48.521Z,26.21
2022-09-03T11:22:20.864Z,26.67
2022-09-03T11:24:55.742Z,27.12
2022-09-03T11:27:32.853Z,27.10
2022-09-03T11:30:07.078Z,27.29
2022-09-03T11:32:55.465Z,27.18
2022-09-03T11:35:29.604Z,26.50
2022-09-03T11:38:01.398Z,26.78
2022-09-03T11:40:35.872Z,26.92
2022-09-03T11:43:08.865Z,26.94
2022-09-03T11:45:39.040Z,26.96
2022-09-03T11:48:29.999Z,26.96
2022-09-03T11:50:58.967Z,26.96
2022-09-03T11:53:34.534Z,27.05
2022-09-03T11:56:18.166Z,26.77
2022-09-03T11:58:48.005Z,26.11
2022-09-03T12:01:18.225Z,26.25
2022-09-03T12:03:52.239Z,25.82
2022-09-03T12:06:44.089Z,25.76
2022-09-03T12:09:35.230Z,25.82
2022-09-03T12:12:15.623Z,26.03
2022-09-03T12:14:53.226Z,25.80
2022-09-03T12:17:29.446Z,25.62
2022-09-03T12:19:59.069Z,25.92
2022-09-03T12:22:30.077Z,26.05
2022-09-03T12:25:11.999Z,25.78
2022-09-03T12:27:40.236Z,25.78
2022-09-03T12:30:18.198Z,25.84
2022-09-03T12:32:48.312Z,26.34
2022-09-03T12:38:09.949Z,25.98
2022-09-03T12:43:40.821Z,25.76
2022-09-03T12:46:16.322Z,25.09
2022-09-03T12:51:52.542Z,23.84
2022-09-03T12:54:23.653Z,23.51
2022-09-03T12:56:57.444Z,23.18
2022-09-03T12:59:29.483Z,22.60
2022-09-03T13:02:03.548Z,21.97
2022-09-03T13:04:34.849Z,21.39
2022-09-03T13:07:05.127Z,19.39
2022-09-03T13:09:37.558Z,18.95
2022-09-03T13:12:06.010Z,18.01
2022-09-03T13:14:44.749Z,17.90
2022-09-03T13:17:27.090Z,17.70
2022-09-03T13:20:17.059Z,17.52
2022-09-03T13:23:00.935Z,17.72
2022-09-03T13:25:35.757Z,18.15
2022-09-03T13:28:15.067Z,18.57
2022-09-03T13:30:54.799Z,18.97
2022-09-03T13:33:26.603Z,19.27
2022-09-03T13:36:03.799Z,19.24
2022-09-03T13:38:37.497Z,19.42
2022-09-03T13:41:20.097Z,19.52
2022-09-03T13:43:54.334Z,19.89
2022-09-03T13:46:25.673Z,20.01
2022-09-03T13:49:18.753Z,20.38
2022-09-03T13:51:54.166Z,20.64
2022-09-03T13:54:48.101Z,20.83
2022-09-03T13:57:31.272Z,21.21
2022-09-03T14:00:05.335Z,21.40
2022-09-03T14:02:47.594Z,21.48
2022-09-03T14:05:24.731Z,21.51
2022-09-03T14:08:08.839Z,21.47
2022-09-03T14:10:54.030Z,21.44
2022-09-03T14:13:33.169Z,21.48
2022-09-03T14:16:08.379Z,21.41
2022-09-03T14:18:50.855Z,21.34
2022-09-03T14:21:23.654Z,21.37
2022-09-03T14:24:02.012Z,21.39
2022-09-03T14:26:39.095Z,21.26
2022-09-03T14:29:16.975Z,21.21
2022-09-03T14:32:05.165Z,21.06
2022-09-03T14:34:44.787Z,21.13
2022-09-03T14:37:30.471Z,21.13
2022-09-03T14:40:05.901Z,21.20
2022-09-03T14:42:49.116Z,21.16
2022-09-03T14:45:25.349Z,21.28
2022-09-03T14:48:08.935Z,21.46
2022-09-03T14:50:48.264Z,21.65
2022-09-03T14:53:28.627Z,21.88
2022-09-03T14:56:06.645Z,22.01
2022-09-03T14:58:49.076Z,22.18
2022-09-03T15:01:27.115Z,22.48
2022-09-03T15:04:10.175Z,22.58
2022-09-03T15:06:49.322Z,22.65
2022-09-03T15:09:28.466Z,22.73
2022-09-03T15:12:00.331Z,23.18
2022-09-03T15:14:36.077Z,23.24
2022-09-03T15:17:20.754Z,22.74
2022-09-03T15:20:04.947Z,22.69
2022-09-03T15:22:50.071Z,22.59
2022-09-03T15:25:27.229Z,22.32
2022-09-03T15:28:07.365Z,21.92
2022-09-03T15:30:40.530Z,21.88
2022-09-03T15:33:22.169Z,21.11
2022-09-03T15:36:08.962Z,21.09
2022-09-03T15:38:45.269Z,21.09
2022-09-03T15:41:34.817Z,21.32
2022-09-03T15:44:07.446Z,20.87
2022-09-03T15:46:52.270Z,21.36
2022-09-03T15:49:33.190Z,21.69
2022-09-03T15:52:10.081Z,21.98
2022-09-03T15:54:47.049Z,21.23
2022-09-03T15:57:21.846Z,21.36
2022-09-03T15:59:56.746Z,21.47
2022-09-03T16:02:33.368Z,21.31
2022-09-03T16:05:14.217Z,21.48
2022-09-03T16:08:05.998Z,21.41
2022-09-03T16:10:42.730Z,21.42
2022-09-03T16:13:28.565Z,21.57
2022-09-03T16:16:02.212Z,21.85
2022-09-03T16:18:36.712Z,22.07
2022-09-03T16:21:10.831Z,22.02
2022-09-03T16:23:43.934Z,21.96
2022-09-03T16:26:20.382Z,22.13
2022-09-03T16:28:53.485Z,22.15
2022-09-03T16:31:35.572Z,21.84
2022-09-03T16:34:16.705Z,21.71
2022-09-03T16:37:00.318Z,21.71
2022-09-03T16:39:40.694Z,21.76
2022-09-03T16:42:18.141Z,21.92
2022-09-03T16:45:00.839Z,21.91
2022-09-03T16:47:37.833Z,21.80
2022-09-03T16:50:19.730Z,21.73
2022-09-03T16:53:01.603Z,21.66
2022-09-03T16:55:40.994Z,21.65
2022-09-03T16:58:19.715Z,21.75
2022-09-03T17:01:00.440Z,21.78
2022-09-03T17:03:54.678Z,22.01
2022-09-03T17:06:42.929Z,22.22
2022-09-03T17:09:23.272Z,22.46
2022-09-03T17:12:03.857Z,22.77
2022-09-03T17:14:57.221Z,23.00
2022-09-03T17:17:47.915Z,22.98
2022-09-03T17:20:22.923Z,22.82
2022-09-03T17:23:01.381Z,22.71
2022-09-03T17:25:37.283Z,22.51
2022-09-03T17:28:21.443Z,22.31
2022-09-03T17:30:58.964Z,22.06
2022-09-03T17:33:56.427Z,21.85
2022-09-03T17:36:26.966Z,21.70
2022-09-03T17:39:13.989Z,21.60
2022-09-03T17:41:48.389Z,21.47
2022-09-03T17:44:24.284Z,21.35
2022-09-03T17:47:04.443Z,21.19
2022-09-03T17:49:35.510Z,21.05
2022-09-03T17:52:07.477Z,20.91
2022-09-03T17:54:43.903Z,20.85
2022-09-03T17:57:21.341Z,20.73
2022-09-03T17:59:57.455Z,20.65
2022-09-03T18:02:34.304Z,20.57
2022-09-03T18:05:07.770Z,20.47
2022-09-03T18:07:44.867Z,20.37
2022-09-03T18:10:25.360Z,20.27
2022-09-03T18:13:03.790Z,20.17
2022-09-03T18:15:37.318Z,20.06
2022-09-03T18:18:11.397Z,19.97
2022-09-03T18:21:22.379Z,19.88
2022-09-03T18:24:12.981Z,19.77
2022-09-03T18:27:05.042Z,19.67
2022-09-03T18:29:58.222Z,19.57
2022-09-03T18:32:44.638Z,19.48
2022-09-03T18:35:30.338Z,19.40
2022-09-03T18:38:15.863Z,19.34
2022-09-03T18:41:12.174Z,19.28
2022-09-03T18:44:07.433Z,19.23
2022-09-03T18:48:03.414Z,19.17
2022-09-03T18:50:17.211Z,19.11
2022-09-03T18:53:10.079Z,19.09
2022-09-03T18:56:06.041Z,19.00
2022-09-03T18:59:00.763Z,18.92
2022-09-03T19:01:52.612Z,18.88
2022-09-03T19:04:49.471Z,18.80
2022-09-03T19:07:42.129Z,18.73
2022-09-03T19:10:34.890Z,18.64
2022-09-03T19:13:39.235Z,18.58
2022-09-03T19:16:31.607Z,18.52
2022-09-03T19:19:36.340Z,18.18
2022-09-03T19:22:28.180Z,18.11
2022-09-03T19:25:19.907Z,18.04
2022-09-03T19:28:21.373Z,18.06
2022-09-03T19:31:16.741Z,18.00
2022-09-03T19:34:11.841Z,18.03
2022-09-03T19:37:05.389Z,18.04
2022-09-03T19:40:10.730Z,17.99
2022-09-03T19:43:07.626Z,17.95
2022-09-03T19:46:03.799Z,17.81
2022-09-03T19:48:59.098Z,17.78
2022-09-03T19:51:51.092Z,17.63
2022-09-03T19:54:40.431Z,17.60
2022-09-03T19:57:31.213Z,17.55
2022-09-03T20:00:17.829Z,17.47
2022-09-03T20:03:16.025Z,17.44
2022-09-03T20:06:03.452Z,17.32
2022-09-03T20:08:52.308Z,17.22
2022-09-03T20:11:22.551Z,17.27
2022-09-03T20:14:09.017Z,17.10
2022-09-03T20:16:44.289Z,17.06
2022-09-03T20:19:21.497Z,17.03
2022-09-03T20:21:53.947Z,17.02
2022-09-03T20:24:39.867Z,16.98
2022-09-03T20:27:23.225Z,16.98
2022-09-03T20:30:02.760Z,16.97
2022-09-03T20:32:46.222Z,16.82
2022-09-03T20:35:23.374Z,16.94
2022-09-03T20:37:57.623Z,16.96
2022-09-03T20:40:29.898Z,16.95
2022-09-03T20:43:12.654Z,16.96
2022-09-03T20:45:59.142Z,16.95
2022-09-03T20:48:37.071Z,16.92
2022-09-03T20:51:12.242Z,16.98
2022-09-03T20:54:02.073Z,16.95
2022-09-03T20:56:37.836Z,16.90
2022-09-03T20:59:14.738Z,16.74
2022-09-03T21:01:56.489Z,16.71
2022-09-03T21:04:37.480Z,16.71
2022-09-03T21:07:17.657Z,16.71
2022-09-03T21:09:53.270Z,16.72
2022-09-03T21:12:32.378Z,16.72
2022-09-03T21:15:04.558Z,16.69
2022-09-03T21:17:46.963Z,16.69
2022-09-03T21:20:23.393Z,16.69
2022-09-03T21:23:07.689Z,16.64
2022-09-03T21:25:43.722Z,16.60
2022-09-03T21:28:17.925Z,16.61
2022-09-03T21:30:50.399Z,16.54
2022-09-03T21:33:24.697Z,16.46
2022-09-03T21:36:00.017Z,16.45
2022-09-03T21:38:32.150Z,16.42
2022-09-03T21:41:11.203Z,16.39
2022-09-03T21:43:46.307Z,16.33
2022-09-03T21:46:16.966Z,16.31
2022-09-03T21:48:52.305Z,16.31
2022-09-03T21:51:25.581Z,16.27
2022-09-03T21:53:59.139Z,16.27
2022-09-03T21:57:00.617Z,16.21
2022-09-03T21:59:48.396Z,16.18
2022-09-03T22:02:23.059Z,16.13
2022-09-03T22:04:52.400Z,16.11
2022-09-03T22:07:27.493Z,16.12
2022-09-03T22:10:02.689Z,16.10
2022-09-03T22:12:34.817Z,16.09
2022-09-03T22:15:04.383Z,16.07
2022-09-03T22:17:41.413Z,16.07
2022-09-03T22:20:15.394Z,16.07
2022-09-03T22:22:47.783Z,16.08
2022-09-03T22:25:23.314Z,16.07
2022-09-03T22:28:00.833Z,16.04
2022-09-03T22:30:35.688Z,15.99
2022-09-03T22:33:11.214Z,16.00
2022-09-03T22:36:03.798Z,16.00
2022-09-03T22:39:08.621Z,15.97
2022-09-03T22:41:52.539Z,15.95
2022-09-03T22:44:34.747Z,15.95
2022-09-03T22:47:13.728Z,15.92
2022-09-03T22:49:52.339Z,15.96
2022-09-03T22:52:31.638Z,15.95
2022-09-03T22:55:16.339Z,15.92
2022-09-03T22:57:53.010Z,15.85
2022-09-03T23:00:21.128Z,15.70
2022-09-03T23:02:56.475Z,15.50
2022-09-03T23:05:43.778Z,15.50
2022-09-03T23:08:16.718Z,15.33
2022-09-03T23:10:55.691Z,15.15
2022-09-03T23:13:28.259Z,15.10
2022-09-03T23:16:02.118Z,15.03
2022-09-03T23:18:33.025Z,14.94
2022-09-03T23:21:07.732Z,14.89
2022-09-03T23:23:41.319Z,14.88
2022-09-03T23:26:17.265Z,14.91
2022-09-03T23:28:50.167Z,14.92
2022-09-03T23:31:22.511Z,14.95
2022-09-03T23:33:52.870Z,14.95
2022-09-03T23:36:57.918Z,15.02
2022-09-03T23:39:43.267Z,15.03
2022-09-03T23:42:19.227Z,15.01
2022-09-03T23:45:01.707Z,14.95
2022-09-03T23:47:41.101Z,14.92
2022-09-03T23:50:29.498Z,14.88
2022-09-03T23:53:11.294Z,14.89
2022-09-03T23:55:55.847Z,14.87
2022-09-03T23:58:39.267Z,14.88
